sensor_id;sensor_type;location;lat;lon;timestamp;P1;durP1;ratioP1;P2;durP2;ratioP2
1004;SDS011;491;53.480;10.174;2023-02-28T00:00:10;3.00;;;2.23;;
1004;SDS011;491;53.480;10.174;2023-02-28T00:02:37;3.80;;;2.10;;
1004;SDS011;491;53.480;10.174;2023-02-28T00:05:10;5.60;;;2.63;;
1004;SDS011;491;53.480;10.174;2023-02-28T00:07:37;5.83;;;2.73;;
1004;SDS011;491;53.480;10.174;2023-02-28T00:10:04;5.17;;;2.50;;
1004;SDS011;491;53.480;10.174;2023-02-28T00:12:32;4.90;;;2.33;;
1004;SDS011;491;53.480;10.174;2023-02-28T00:14:58;3.97;;;3.50;;
1004;SDS011;491;53.480;10.174;2023-02-28T00:17:24;4.50;;;2.70;;
1004;SDS011;491;53.480;10.174;2023-02-28T00:19:52;4.70;;;2.67;;
1004;SDS011;491;53.480;10.174;2023-02-28T00:22:18;6.30;;;3.40;;
1004;SDS011;491;53.480;10.174;2023-02-28T00:24:44;6.00;;;3.00;;
1004;SDS011;491;53.480;10.174;2023-02-28T00:27:10;4.07;;;2.33;;
1004;SDS011;491;53.480;10.174;2023-02-28T00:29:36;5.83;;;2.87;;
1004;SDS011;491;53.480;10.174;2023-02-28T00:32:02;8.50;;;3.47;;
1004;SDS011;491;53.480;10.174;2023-02-28T00:34:28;5.23;;;4.47;;
1004;SDS011;491;53.480;10.174;2023-02-28T00:36:54;5.97;;;3.57;;
1004;SDS011;491;53.480;10.174;2023-02-28T00:39:19;7.00;;;3.33;;
1004;SDS011;491;53.480;10.174;2023-02-28T00:41:45;5.43;;;3.67;;
1004;SDS011;491;53.480;10.174;2023-02-28T00:44:13;9.00;;;3.73;;
1004;SDS011;491;53.480;10.174;2023-02-28T00:46:38;9.57;;;4.10;;
1004;SDS011;491;53.480;10.174;2023-02-28T00:49:04;6.93;;;3.57;;
1004;SDS011;491;53.480;10.174;2023-02-28T00:51:29;5.67;;;3.13;;
1004;SDS011;491;53.480;10.174;2023-02-28T00:53:55;5.57;;;3.70;;
1004;SDS011;491;53.480;10.174;2023-02-28T00:56:20;3.57;;;2.77;;
1004;SDS011;491;53.480;10.174;2023-02-28T00:58:46;7.13;;;3.80;;
1004;SDS011;491;53.480;10.174;2023-02-28T01:01:11;4.47;;;3.33;;
1004;SDS011;491;53.480;10.174;2023-02-28T01:03:37;3.53;;;2.70;;
1004;SDS011;491;53.480;10.174;2023-02-28T01:06:03;5.73;;;3.50;;
1004;SDS011;491;53.480;10.174;2023-02-28T01:08:29;8.33;;;4.00;;
1004;SDS011;491;53.480;10.174;2023-02-28T01:10:54;4.80;;;3.40;;
1004;SDS011;491;53.480;10.174;2023-02-28T01:13:20;3.17;;;2.87;;
1004;SDS011;491;53.480;10.174;2023-02-28T01:15:51;6.80;;;3.90;;
1004;SDS011;491;53.480;10.174;2023-02-28T01:18:19;5.90;;;3.60;;
1004;SDS011;491;53.480;10.174;2023-02-28T01:20:46;6.00;;;3.50;;
1004;SDS011;491;53.480;10.174;2023-02-28T01:23:12;8.73;;;4.60;;
1004;SDS011;491;53.480;10.174;2023-02-28T01:25:37;5.27;;;4.10;;
1004;SDS011;491;53.480;10.174;2023-02-28T01:28:03;6.57;;;3.67;;
1004;SDS011;491;53.480;10.174;2023-02-28T01:30:30;5.23;;;3.50;;
1004;SDS011;491;53.480;10.174;2023-02-28T01:32:55;6.50;;;3.60;;
1004;SDS011;491;53.480;10.174;2023-02-28T01:35:21;5.87;;;3.63;;
1004;SDS011;491;53.480;10.174;2023-02-28T01:37:46;8.40;;;4.50;;
1004;SDS011;491;53.480;10.174;2023-02-28T01:40:13;7.63;;;4.07;;
1004;SDS011;491;53.480;10.174;2023-02-28T01:42:39;7.47;;;4.20;;
1004;SDS011;491;53.480;10.174;2023-02-28T01:47:55;8.97;;;4.50;;
1004;SDS011;491;53.480;10.174;2023-02-28T01:50:26;5.27;;;4.03;;
1004;SDS011;491;53.480;10.174;2023-02-28T01:52:55;6.60;;;4.70;;
1004;SDS011;491;53.480;10.174;2023-02-28T01:55:24;5.77;;;3.37;;
1004;SDS011;491;53.480;10.174;2023-02-28T01:57:54;9.70;;;5.07;;
1004;SDS011;491;53.480;10.174;2023-02-28T02:00:24;4.60;;;3.20;;
1004;SDS011;491;53.480;10.174;2023-02-28T02:02:53;6.40;;;4.50;;
1004;SDS011;491;53.480;10.174;2023-02-28T02:05:26;3.80;;;3.23;;
1004;SDS011;491;53.480;10.174;2023-02-28T02:07:56;8.53;;;4.80;;
1004;SDS011;491;53.480;10.174;2023-02-28T02:10:53;8.43;;;3.93;;
1004;SDS011;491;53.480;10.174;2023-02-28T02:16:04;4.47;;;3.00;;
1004;SDS011;491;53.480;10.174;2023-02-28T02:18:49;5.13;;;3.63;;
1004;SDS011;491;53.480;10.174;2023-02-28T02:21:21;4.33;;;3.40;;
1004;SDS011;491;53.480;10.174;2023-02-28T02:29:30;7.60;;;3.60;;
1004;SDS011;491;53.480;10.174;2023-02-28T02:31:51;4.93;;;3.80;;
1004;SDS011;491;53.480;10.174;2023-02-28T02:34:26;9.43;;;4.40;;
1004;SDS011;491;53.480;10.174;2023-02-28T02:37:08;6.70;;;3.73;;
1004;SDS011;491;53.480;10.174;2023-02-28T02:40:23;6.37;;;2.63;;
1004;SDS011;491;53.480;10.174;2023-02-28T02:42:35;6.40;;;3.13;;
1004;SDS011;491;53.480;10.174;2023-02-28T02:45:12;5.13;;;2.67;;
1004;SDS011;491;53.480;10.174;2023-02-28T02:47:40;5.23;;;3.77;;
1004;SDS011;491;53.480;10.174;2023-02-28T02:50:08;6.23;;;4.33;;
1004;SDS011;491;53.480;10.174;2023-02-28T02:52:38;7.70;;;3.50;;
1004;SDS011;491;53.480;10.174;2023-02-28T02:55:09;5.63;;;2.80;;
1004;SDS011;491;53.480;10.174;2023-02-28T02:57:38;6.73;;;3.17;;
1004;SDS011;491;53.480;10.174;2023-02-28T03:00:06;8.23;;;3.00;;
1004;SDS011;491;53.480;10.174;2023-02-28T03:02:33;4.73;;;3.83;;
1004;SDS011;491;53.480;10.174;2023-02-28T03:05:01;6.43;;;3.53;;
1004;SDS011;491;53.480;10.174;2023-02-28T03:07:28;6.77;;;3.87;;
1004;SDS011;491;53.480;10.174;2023-02-28T03:09:55;7.97;;;3.50;;
1004;SDS011;491;53.480;10.174;2023-02-28T03:12:22;6.53;;;3.83;;
1004;SDS011;491;53.480;10.174;2023-02-28T03:14:56;6.30;;;2.83;;
1004;SDS011;491;53.480;10.174;2023-02-28T03:17:31;5.50;;;2.80;;
1004;SDS011;491;53.480;10.174;2023-02-28T03:20:26;6.83;;;3.50;;
1004;SDS011;491;53.480;10.174;2023-02-28T03:28:31;4.50;;;3.27;;
1004;SDS011;491;53.480;10.174;2023-02-28T03:31:10;5.40;;;2.87;;
1004;SDS011;491;53.480;10.174;2023-02-28T03:33:55;5.97;;;2.83;;
1004;SDS011;491;53.480;10.174;2023-02-28T03:36:27;5.03;;;3.93;;
1004;SDS011;491;53.480;10.174;2023-02-28T03:39:02;4.50;;;2.50;;
1004;SDS011;491;53.480;10.174;2023-02-28T03:41:36;6.30;;;3.40;;
1004;SDS011;491;53.480;10.174;2023-02-28T03:44:16;4.80;;;2.47;;
1004;SDS011;491;53.480;10.174;2023-02-28T03:46:46;5.50;;;3.37;;
1004;SDS011;491;53.480;10.174;2023-02-28T03:49:16;3.33;;;2.57;;
1004;SDS011;491;53.480;10.174;2023-02-28T03:51:42;5.60;;;3.90;;
1004;SDS011;491;53.480;10.174;2023-02-28T03:54:12;4.70;;;2.13;;
1004;SDS011;491;53.480;10.174;2023-02-28T03:56:41;7.87;;;3.60;;
1004;SDS011;491;53.480;10.174;2023-02-28T03:59:28;9.00;;;3.47;;
1004;SDS011;491;53.480;10.174;2023-02-28T04:01:56;5.10;;;3.90;;
1004;SDS011;491;53.480;10.174;2023-02-28T04:04:23;7.77;;;4.00;;
1004;SDS011;491;53.480;10.174;2023-02-28T04:06:52;7.00;;;3.10;;
1004;SDS011;491;53.480;10.174;2023-02-28T04:09:18;3.23;;;1.80;;
1004;SDS011;491;53.480;10.174;2023-02-28T04:11:45;5.27;;;2.23;;
1004;SDS011;491;53.480;10.174;2023-02-28T04:14:14;4.67;;;2.90;;
1004;SDS011;491;53.480;10.174;2023-02-28T04:16:41;3.83;;;2.57;;
1004;SDS011;491;53.480;10.174;2023-02-28T04:19:07;3.70;;;2.67;;
1004;SDS011;491;53.480;10.174;2023-02-28T04:21:38;3.73;;;2.77;;
1004;SDS011;491;53.480;10.174;2023-02-28T04:24:04;4.90;;;3.20;;
1004;SDS011;491;53.480;10.174;2023-02-28T04:26:39;5.43;;;3.50;;
1004;SDS011;491;53.480;10.174;2023-02-28T04:29:05;3.90;;;2.23;;
1004;SDS011;491;53.480;10.174;2023-02-28T04:31:32;4.00;;;3.20;;
1004;SDS011;491;53.480;10.174;2023-02-28T04:33:58;3.00;;;2.80;;
1004;SDS011;491;53.480;10.174;2023-02-28T04:36:24;5.17;;;3.40;;
1004;SDS011;491;53.480;10.174;2023-02-28T04:38:50;5.13;;;3.53;;
1004;SDS011;491;53.480;10.174;2023-02-28T04:41:16;5.20;;;2.20;;
1004;SDS011;491;53.480;10.174;2023-02-28T04:43:42;6.40;;;2.37;;
1004;SDS011;491;53.480;10.174;2023-02-28T04:46:08;4.17;;;3.50;;
1004;SDS011;491;53.480;10.174;2023-02-28T04:48:36;6.93;;;3.03;;
1004;SDS011;491;53.480;10.174;2023-02-28T04:51:02;11.03;;;3.90;;
1004;SDS011;491;53.480;10.174;2023-02-28T04:53:29;5.40;;;2.80;;
1004;SDS011;491;53.480;10.174;2023-02-28T04:55:55;3.93;;;2.33;;
1004;SDS011;491;53.480;10.174;2023-02-28T04:58:21;4.90;;;2.60;;
1004;SDS011;491;53.480;10.174;2023-02-28T05:00:48;7.60;;;4.23;;
1004;SDS011;491;53.480;10.174;2023-02-28T05:03:14;7.97;;;4.00;;
1004;SDS011;491;53.480;10.174;2023-02-28T05:05:40;5.37;;;3.10;;
1004;SDS011;491;53.480;10.174;2023-02-28T05:08:06;3.67;;;3.37;;
1004;SDS011;491;53.480;10.174;2023-02-28T05:10:32;6.10;;;2.47;;
1004;SDS011;491;53.480;10.174;2023-02-28T05:12:58;2.93;;;2.70;;
1004;SDS011;491;53.480;10.174;2023-02-28T05:15:24;4.00;;;2.57;;
1004;SDS011;491;53.480;10.174;2023-02-28T05:17:49;4.73;;;2.30;;
1004;SDS011;491;53.480;10.174;2023-02-28T05:20:18;9.17;;;3.70;;
1004;SDS011;491;53.480;10.174;2023-02-28T05:22:54;6.17;;;2.70;;
1004;SDS011;491;53.480;10.174;2023-02-28T05:25:21;5.77;;;2.40;;
1004;SDS011;491;53.480;10.174;2023-02-28T05:27:47;6.93;;;3.83;;
1004;SDS011;491;53.480;10.174;2023-02-28T05:30:13;5.50;;;2.37;;
1004;SDS011;491;53.480;10.174;2023-02-28T05:32:40;4.37;;;3.27;;
1004;SDS011;491;53.480;10.174;2023-02-28T05:35:10;6.23;;;3.40;;
1004;SDS011;491;53.480;10.174;2023-02-28T05:37:36;4.67;;;2.10;;
1004;SDS011;491;53.480;10.174;2023-02-28T05:40:02;5.80;;;2.67;;
1004;SDS011;491;53.480;10.174;2023-02-28T05:42:31;5.67;;;3.10;;
1004;SDS011;491;53.480;10.174;2023-02-28T05:44:57;6.50;;;3.00;;
1004;SDS011;491;53.480;10.174;2023-02-28T05:47:23;10.60;;;3.47;;
1004;SDS011;491;53.480;10.174;2023-02-28T05:49:49;5.13;;;2.97;;
1004;SDS011;491;53.480;10.174;2023-02-28T05:52:15;4.80;;;3.50;;
1004;SDS011;491;53.480;10.174;2023-02-28T05:54:41;7.10;;;3.80;;
1004;SDS011;491;53.480;10.174;2023-02-28T05:57:07;3.97;;;3.67;;
1004;SDS011;491;53.480;10.174;2023-02-28T05:59:33;4.47;;;2.93;;
1004;SDS011;491;53.480;10.174;2023-02-28T06:01:59;5.50;;;4.00;;
1004;SDS011;491;53.480;10.174;2023-02-28T06:04:25;4.27;;;3.27;;
1004;SDS011;491;53.480;10.174;2023-02-28T06:06:51;6.23;;;4.00;;
1004;SDS011;491;53.480;10.174;2023-02-28T06:09:17;6.57;;;3.90;;
1004;SDS011;491;53.480;10.174;2023-02-28T06:11:46;4.17;;;3.77;;
1004;SDS011;491;53.480;10.174;2023-02-28T06:14:14;3.50;;;2.60;;
1004;SDS011;491;53.480;10.174;2023-02-28T06:16:44;4.50;;;3.57;;
1004;SDS011;491;53.480;10.174;2023-02-28T06:19:10;8.67;;;3.90;;
1004;SDS011;491;53.480;10.174;2023-02-28T06:21:36;8.47;;;5.00;;
1004;SDS011;491;53.480;10.174;2023-02-28T06:24:02;5.60;;;4.20;;
1004;SDS011;491;53.480;10.174;2023-02-28T06:26:29;4.07;;;2.60;;
1004;SDS011;491;53.480;10.174;2023-02-28T06:28:55;6.87;;;3.50;;
1004;SDS011;491;53.480;10.174;2023-02-28T06:31:21;8.63;;;4.47;;
1004;SDS011;491;53.480;10.174;2023-02-28T06:33:48;6.10;;;4.40;;
1004;SDS011;491;53.480;10.174;2023-02-28T06:36:15;8.27;;;4.00;;
1004;SDS011;491;53.480;10.174;2023-02-28T06:38:41;6.87;;;3.63;;
1004;SDS011;491;53.480;10.174;2023-02-28T06:41:07;5.27;;;3.50;;
1004;SDS011;491;53.480;10.174;2023-02-28T06:43:38;11.80;;;4.17;;
1004;SDS011;491;53.480;10.174;2023-02-28T06:46:05;10.03;;;4.27;;
1004;SDS011;491;53.480;10.174;2023-02-28T06:48:32;16.47;;;9.10;;
1004;SDS011;491;53.480;10.174;2023-02-28T06:51:05;15.67;;;11.93;;
1004;SDS011;491;53.480;10.174;2023-02-28T06:53:31;16.07;;;10.40;;
1004;SDS011;491;53.480;10.174;2023-02-28T06:55:57;12.23;;;7.50;;
1004;SDS011;491;53.480;10.174;2023-02-28T06:58:22;16.50;;;9.30;;
1004;SDS011;491;53.480;10.174;2023-02-28T07:00:50;16.50;;;12.03;;
1004;SDS011;491;53.480;10.174;2023-02-28T07:03:17;18.80;;;11.00;;
1004;SDS011;491;53.480;10.174;2023-02-28T07:05:43;12.13;;;9.97;;
1004;SDS011;491;53.480;10.174;2023-02-28T07:08:09;23.97;;;16.00;;
1004;SDS011;491;53.480;10.174;2023-02-28T07:10:37;18.37;;;12.67;;
1004;SDS011;491;53.480;10.174;2023-02-28T07:13:03;11.40;;;6.87;;
1004;SDS011;491;53.480;10.174;2023-02-28T07:15:29;9.07;;;4.33;;
1004;SDS011;491;53.480;10.174;2023-02-28T07:17:54;9.90;;;7.57;;
1004;SDS011;491;53.480;10.174;2023-02-28T07:20:25;7.10;;;5.27;;
1004;SDS011;491;53.480;10.174;2023-02-28T07:22:51;9.37;;;5.90;;
1004;SDS011;491;53.480;10.174;2023-02-28T07:25:22;4.73;;;3.30;;
1004;SDS011;491;53.480;10.174;2023-02-28T07:27:48;9.83;;;5.77;;
1004;SDS011;491;53.480;10.174;2023-02-28T07:30:13;8.80;;;6.50;;
1004;SDS011;491;53.480;10.174;2023-02-28T07:32:42;12.07;;;7.20;;
1004;SDS011;491;53.480;10.174;2023-02-28T07:35:07;24.70;;;17.40;;
1004;SDS011;491;53.480;10.174;2023-02-28T07:37:33;9.70;;;7.53;;
1004;SDS011;491;53.480;10.174;2023-02-28T07:40:02;8.80;;;4.10;;
1004;SDS011;491;53.480;10.174;2023-02-28T07:42:33;6.40;;;2.70;;
1004;SDS011;491;53.480;10.174;2023-02-28T07:44:59;4.53;;;2.30;;
1004;SDS011;491;53.480;10.174;2023-02-28T07:47:25;6.20;;;3.37;;
1004;SDS011;491;53.480;10.174;2023-02-28T07:49:51;5.03;;;2.37;;
1004;SDS011;491;53.480;10.174;2023-02-28T07:52:16;3.43;;;2.77;;
1004;SDS011;491;53.480;10.174;2023-02-28T07:54:42;4.70;;;2.57;;
1004;SDS011;491;53.480;10.174;2023-02-28T07:57:07;4.57;;;2.57;;
1004;SDS011;491;53.480;10.174;2023-02-28T07:59:33;4.20;;;2.60;;
1004;SDS011;491;53.480;10.174;2023-02-28T08:01:58;6.27;;;3.00;;
1004;SDS011;491;53.480;10.174;2023-02-28T08:04:24;3.80;;;2.90;;
1004;SDS011;491;53.480;10.174;2023-02-28T08:06:52;6.73;;;3.07;;
1004;SDS011;491;53.480;10.174;2023-02-28T08:09:18;5.87;;;2.73;;
1004;SDS011;491;53.480;10.174;2023-02-28T08:11:50;4.10;;;3.00;;
1004;SDS011;491;53.480;10.174;2023-02-28T08:14:16;3.33;;;3.00;;
1004;SDS011;491;53.480;10.174;2023-02-28T08:16:41;3.20;;;2.27;;
1004;SDS011;491;53.480;10.174;2023-02-28T08:19:08;5.87;;;2.80;;
1004;SDS011;491;53.480;10.174;2023-02-28T08:21:33;3.87;;;2.90;;
1004;SDS011;491;53.480;10.174;2023-02-28T08:23:59;5.73;;;2.80;;
1004;SDS011;491;53.480;10.174;2023-02-28T08:26:25;3.93;;;2.47;;
1004;SDS011;491;53.480;10.174;2023-02-28T08:28:50;4.50;;;2.30;;
1004;SDS011;491;53.480;10.174;2023-02-28T08:31:16;4.73;;;3.67;;
1004;SDS011;491;53.480;10.174;2023-02-28T08:33:42;3.00;;;2.33;;
1004;SDS011;491;53.480;10.174;2023-02-28T08:36:09;4.90;;;3.23;;
1004;SDS011;491;53.480;10.174;2023-02-28T08:38:38;4.00;;;3.03;;
1004;SDS011;491;53.480;10.174;2023-02-28T08:41:05;2.50;;;1.83;;
1004;SDS011;491;53.480;10.174;2023-02-28T08:43:34;3.40;;;1.93;;
1004;SDS011;491;53.480;10.174;2023-02-28T08:46:00;4.60;;;2.00;;
1004;SDS011;491;53.480;10.174;2023-02-28T08:48:26;4.43;;;2.97;;
1004;SDS011;491;53.480;10.174;2023-02-28T08:53:24;4.77;;;2.27;;
1004;SDS011;491;53.480;10.174;2023-02-28T08:55:57;4.00;;;2.37;;
1004;SDS011;491;53.480;10.174;2023-02-28T08:58:31;3.20;;;2.00;;
1004;SDS011;491;53.480;10.174;2023-02-28T09:00:56;3.30;;;2.03;;
1004;SDS011;491;53.480;10.174;2023-02-28T09:03:22;4.23;;;1.80;;
1004;SDS011;491;53.480;10.174;2023-02-28T09:05:52;3.77;;;3.13;;
1004;SDS011;491;53.480;10.174;2023-02-28T09:08:21;2.93;;;1.80;;
1004;SDS011;491;53.480;10.174;2023-02-28T09:10:47;3.40;;;1.80;;
1004;SDS011;491;53.480;10.174;2023-02-28T09:13:13;3.60;;;2.10;;
1004;SDS011;491;53.480;10.174;2023-02-28T09:15:39;4.50;;;2.20;;
1004;SDS011;491;53.480;10.174;2023-02-28T09:18:04;3.60;;;2.57;;
1004;SDS011;491;53.480;10.174;2023-02-28T09:20:32;5.90;;;2.07;;
1004;SDS011;491;53.480;10.174;2023-02-28T09:22:57;2.70;;;1.97;;
1004;SDS011;491;53.480;10.174;2023-02-28T09:25:23;5.70;;;2.03;;
1004;SDS011;491;53.480;10.174;2023-02-28T09:27:48;3.50;;;2.20;;
1004;SDS011;491;53.480;10.174;2023-02-28T09:30:17;7.50;;;1.93;;
1004;SDS011;491;53.480;10.174;2023-02-28T09:32:42;3.37;;;2.10;;
1004;SDS011;491;53.480;10.174;2023-02-28T09:35:17;4.10;;;2.13;;
1004;SDS011;491;53.480;10.174;2023-02-28T09:37:43;3.70;;;2.00;;
1004;SDS011;491;53.480;10.174;2023-02-28T09:40:09;5.50;;;2.23;;
1004;SDS011;491;53.480;10.174;2023-02-28T09:42:36;5.17;;;2.23;;
1004;SDS011;491;53.480;10.174;2023-02-28T09:45:02;2.73;;;1.40;;
1004;SDS011;491;53.480;10.174;2023-02-28T09:48:09;3.00;;;1.47;;
1004;SDS011;491;53.480;10.174;2023-02-28T09:51:43;2.30;;;0.90;;
1004;SDS011;491;53.480;10.174;2023-02-28T09:53:51;2.00;;;1.30;;
1004;SDS011;491;53.480;10.174;2023-02-28T09:56:19;2.10;;;1.20;;
1004;SDS011;491;53.480;10.174;2023-02-28T09:58:53;2.00;;;0.90;;
1004;SDS011;491;53.480;10.174;2023-02-28T10:07:06;4.07;;;0.97;;
1004;SDS011;491;53.480;10.174;2023-02-28T10:09:43;1.90;;;0.70;;
1004;SDS011;491;53.480;10.174;2023-02-28T10:12:13;1.20;;;0.30;;
1004;SDS011;491;53.480;10.174;2023-02-28T10:14:40;1.27;;;0.40;;
1004;SDS011;491;53.480;10.174;2023-02-28T10:17:16;1.10;;;0.23;;
1004;SDS011;491;53.480;10.174;2023-02-28T10:25:04;1.20;;;0.23;;
1004;SDS011;491;53.480;10.174;2023-02-28T10:27:41;0.50;;;0.20;;
1004;SDS011;491;53.480;10.174;2023-02-28T10:30:09;1.13;;;0.33;;
1004;SDS011;491;53.480;10.174;2023-02-28T10:32:35;1.57;;;0.77;;
1004;SDS011;491;53.480;10.174;2023-02-28T10:35:09;0.93;;;0.23;;
1004;SDS011;491;53.480;10.174;2023-02-28T10:38:05;0.90;;;0.30;;
1004;SDS011;491;53.480;10.174;2023-02-28T10:40:39;1.23;;;0.40;;
1004;SDS011;491;53.480;10.174;2023-02-28T10:45:52;1.20;;;0.40;;
1004;SDS011;491;53.480;10.174;2023-02-28T10:48:40;0.87;;;0.20;;
1004;SDS011;491;53.480;10.174;2023-02-28T10:51:11;1.53;;;0.30;;
1004;SDS011;491;53.480;10.174;2023-02-28T10:56:19;1.63;;;0.27;;
1004;SDS011;491;53.480;10.174;2023-02-28T10:59:00;2.10;;;0.20;;
1004;SDS011;491;53.480;10.174;2023-02-28T11:01:47;1.60;;;0.23;;
1004;SDS011;491;53.480;10.174;2023-02-28T11:09:46;1.33;;;0.60;;
1004;SDS011;491;53.480;10.174;2023-02-28T11:12:21;1.03;;;0.40;;
1004;SDS011;491;53.480;10.174;2023-02-28T11:14:51;2.47;;;0.53;;
1004;SDS011;491;53.480;10.174;2023-02-28T11:17:26;0.93;;;0.20;;
1004;SDS011;491;53.480;10.174;2023-02-28T11:19:55;1.40;;;0.53;;
1004;SDS011;491;53.480;10.174;2023-02-28T11:22:29;0.70;;;0.53;;
1004;SDS011;491;53.480;10.174;2023-02-28T11:24:59;3.23;;;0.50;;
1004;SDS011;491;53.480;10.174;2023-02-28T11:30:03;2.47;;;0.40;;
1004;SDS011;491;53.480;10.174;2023-02-28T11:32:50;1.20;;;0.50;;
1004;SDS011;491;53.480;10.174;2023-02-28T11:37:53;1.67;;;0.80;;
1004;SDS011;491;53.480;10.174;2023-02-28T11:40:21;1.07;;;0.20;;
1004;SDS011;491;53.480;10.174;2023-02-28T11:42:57;1.30;;;0.20;;
1004;SDS011;491;53.480;10.174;2023-02-28T11:45:42;0.70;;;0.40;;
1004;SDS011;491;53.480;10.174;2023-02-28T11:48:22;1.07;;;0.30;;
1004;SDS011;491;53.480;10.174;2023-02-28T12:07:19;1.83;;;0.30;;
1004;SDS011;491;53.480;10.174;2023-02-28T12:12:54;1.57;;;0.40;;
1004;SDS011;491;53.480;10.174;2023-02-28T12:16:04;1.00;;;0.43;;
1004;SDS011;491;53.480;10.174;2023-02-28T12:27:33;1.43;;;0.77;;
1004;SDS011;491;53.480;10.174;2023-02-28T12:33:04;1.70;;;0.50;;
1004;SDS011;491;53.480;10.174;2023-02-28T12:40:43;1.80;;;0.50;;
1004;SDS011;491;53.480;10.174;2023-02-28T12:43:13;1.10;;;0.30;;
1004;SDS011;491;53.480;10.174;2023-02-28T12:45:50;2.37;;;0.90;;
1004;SDS011;491;53.480;10.174;2023-02-28T12:48:27;1.90;;;0.90;;
1004;SDS011;491;53.480;10.174;2023-02-28T12:50:58;1.90;;;0.57;;
1004;SDS011;491;53.480;10.174;2023-02-28T12:56:21;1.03;;;0.63;;
1004;SDS011;491;53.480;10.174;2023-02-28T12:58:59;1.23;;;0.40;;
1004;SDS011;491;53.480;10.174;2023-02-28T13:01:38;1.17;;;0.60;;
1004;SDS011;491;53.480;10.174;2023-02-28T13:09:54;1.63;;;0.50;;
1004;SDS011;491;53.480;10.174;2023-02-28T13:12:20;1.27;;;0.43;;
1004;SDS011;491;53.480;10.174;2023-02-28T13:14:47;1.30;;;0.67;;
1004;SDS011;491;53.480;10.174;2023-02-28T13:17:18;1.57;;;0.50;;
1004;SDS011;491;53.480;10.174;2023-02-28T13:22:19;1.53;;;0.43;;
1004;SDS011;491;53.480;10.174;2023-02-28T13:27:11;1.83;;;0.50;;
1004;SDS011;491;53.480;10.174;2023-02-28T13:29:50;1.90;;;0.70;;
1004;SDS011;491;53.480;10.174;2023-02-28T13:39:50;1.30;;;0.80;;
1004;SDS011;491;53.480;10.174;2023-02-28T13:47:36;2.77;;;0.50;;
1004;SDS011;491;53.480;10.174;2023-02-28T13:50:14;1.67;;;0.30;;
1004;SDS011;491;53.480;10.174;2023-02-28T13:52:53;1.53;;;0.60;;
1004;SDS011;491;53.480;10.174;2023-02-28T13:55:31;1.30;;;0.43;;
1004;SDS011;491;53.480;10.174;2023-02-28T13:58:13;1.03;;;0.50;;
1004;SDS011;491;53.480;10.174;2023-02-28T14:01:11;3.47;;;0.40;;
1004;SDS011;491;53.480;10.174;2023-02-28T14:03:50;2.27;;;0.50;;
1004;SDS011;491;53.480;10.174;2023-02-28T14:06:33;1.30;;;0.57;;
1004;SDS011;491;53.480;10.174;2023-02-28T14:09:01;4.20;;;0.60;;
1004;SDS011;491;53.480;10.174;2023-02-28T14:11:32;2.50;;;0.77;;
1004;SDS011;491;53.480;10.174;2023-02-28T14:13:59;2.23;;;0.67;;
1004;SDS011;491;53.480;10.174;2023-02-28T14:16:36;0.97;;;0.40;;
1004;SDS011;491;53.480;10.174;2023-02-28T14:19:12;3.10;;;0.37;;
1004;SDS011;491;53.480;10.174;2023-02-28T14:21:39;1.47;;;0.53;;
1004;SDS011;491;53.480;10.174;2023-02-28T14:26:58;1.97;;;0.57;;
1004;SDS011;491;53.480;10.174;2023-02-28T14:29:43;1.07;;;0.30;;
1004;SDS011;491;53.480;10.174;2023-02-28T14:32:25;0.70;;;0.30;;
1004;SDS011;491;53.480;10.174;2023-02-28T14:34:54;1.17;;;0.20;;
1004;SDS011;491;53.480;10.174;2023-02-28T14:37:33;1.23;;;0.37;;
1004;SDS011;491;53.480;10.174;2023-02-28T14:40:00;1.23;;;0.40;;
1004;SDS011;491;53.480;10.174;2023-02-28T14:42:30;1.87;;;0.70;;
1004;SDS011;491;53.480;10.174;2023-02-28T14:44:57;2.10;;;0.60;;
1004;SDS011;491;53.480;10.174;2023-02-28T14:47:23;0.87;;;0.30;;
1004;SDS011;491;53.480;10.174;2023-02-28T14:49:49;1.73;;;0.47;;
1004;SDS011;491;53.480;10.174;2023-02-28T14:52:23;1.37;;;0.50;;
1004;SDS011;491;53.480;10.174;2023-02-28T14:54:54;1.67;;;0.67;;
1004;SDS011;491;53.480;10.174;2023-02-28T14:57:28;2.50;;;0.67;;
1004;SDS011;491;53.480;10.174;2023-02-28T15:00:14;3.90;;;1.53;;
1004;SDS011;491;53.480;10.174;2023-02-28T15:02:41;2.53;;;0.80;;
1004;SDS011;491;53.480;10.174;2023-02-28T15:08:06;0.60;;;0.30;;
1004;SDS011;491;53.480;10.174;2023-02-28T15:10:32;2.53;;;1.10;;
1004;SDS011;491;53.480;10.174;2023-02-28T15:13:00;2.00;;;0.87;;
1004;SDS011;491;53.480;10.174;2023-02-28T15:15:27;2.60;;;0.97;;
1004;SDS011;491;53.480;10.174;2023-02-28T15:18:11;1.43;;;0.50;;
1004;SDS011;491;53.480;10.174;2023-02-28T15:20:40;1.47;;;0.60;;
1004;SDS011;491;53.480;10.174;2023-02-28T15:23:06;1.20;;;0.30;;
1004;SDS011;491;53.480;10.174;2023-02-28T15:25:32;1.30;;;0.40;;
1004;SDS011;491;53.480;10.174;2023-02-28T15:27:59;1.43;;;0.67;;
1004;SDS011;491;53.480;10.174;2023-02-28T15:30:29;0.97;;;0.20;;
1004;SDS011;491;53.480;10.174;2023-02-28T15:33:03;1.83;;;0.70;;
1004;SDS011;491;53.480;10.174;2023-02-28T15:35:31;1.93;;;0.70;;
1004;SDS011;491;53.480;10.174;2023-02-28T15:38:00;2.57;;;0.77;;
1004;SDS011;491;53.480;10.174;2023-02-28T15:40:28;1.20;;;0.63;;
1004;SDS011;491;53.480;10.174;2023-02-28T15:42:58;1.13;;;0.40;;
1004;SDS011;491;53.480;10.174;2023-02-28T15:45:28;3.43;;;0.63;;
1004;SDS011;491;53.480;10.174;2023-02-28T15:47:54;1.07;;;0.27;;
1004;SDS011;491;53.480;10.174;2023-02-28T15:50:21;2.03;;;0.70;;
1004;SDS011;491;53.480;10.174;2023-02-28T15:52:47;1.93;;;0.80;;
1004;SDS011;491;53.480;10.174;2023-02-28T15:55:23;1.90;;;1.20;;
1004;SDS011;491;53.480;10.174;2023-02-28T15:57:50;1.70;;;0.70;;
1004;SDS011;491;53.480;10.174;2023-02-28T16:00:22;2.80;;;0.80;;
1004;SDS011;491;53.480;10.174;2023-02-28T16:02:48;1.97;;;0.50;;
1004;SDS011;491;53.480;10.174;2023-02-28T16:05:22;4.47;;;0.80;;
1004;SDS011;491;53.480;10.174;2023-02-28T16:07:52;2.30;;;1.27;;
1004;SDS011;491;53.480;10.174;2023-02-28T16:10:18;3.00;;;0.70;;
1004;SDS011;491;53.480;10.174;2023-02-28T16:12:47;1.50;;;0.70;;
1004;SDS011;491;53.480;10.174;2023-02-28T16:15:17;2.97;;;1.13;;
1004;SDS011;491;53.480;10.174;2023-02-28T16:17:43;3.70;;;0.90;;
1004;SDS011;491;53.480;10.174;2023-02-28T16:20:12;2.43;;;0.73;;
1004;SDS011;491;53.480;10.174;2023-02-28T16:22:39;1.70;;;0.73;;
1004;SDS011;491;53.480;10.174;2023-02-28T16:25:07;2.10;;;0.50;;
1004;SDS011;491;53.480;10.174;2023-02-28T16:27:35;2.53;;;1.43;;
1004;SDS011;491;53.480;10.174;2023-02-28T16:30:02;1.80;;;0.93;;
1004;SDS011;491;53.480;10.174;2023-02-28T16:32:29;2.23;;;1.10;;
1004;SDS011;491;53.480;10.174;2023-02-28T16:34:55;2.03;;;1.10;;
1004;SDS011;491;53.480;10.174;2023-02-28T16:37:21;2.80;;;0.93;;
1004;SDS011;491;53.480;10.174;2023-02-28T16:39:47;2.97;;;1.07;;
1004;SDS011;491;53.480;10.174;2023-02-28T16:42:18;2.70;;;1.10;;
1004;SDS011;491;53.480;10.174;2023-02-28T16:44:49;3.63;;;1.27;;
1004;SDS011;491;53.480;10.174;2023-02-28T16:47:15;1.87;;;0.63;;
1004;SDS011;491;53.480;10.174;2023-02-28T16:49:41;2.03;;;0.77;;
1004;SDS011;491;53.480;10.174;2023-02-28T16:52:08;2.20;;;1.50;;
1004;SDS011;491;53.480;10.174;2023-02-28T16:54:34;3.03;;;1.70;;
1004;SDS011;491;53.480;10.174;2023-02-28T16:57:00;3.30;;;1.70;;
1004;SDS011;491;53.480;10.174;2023-02-28T16:59:26;0.90;;;0.60;;
1004;SDS011;491;53.480;10.174;2023-02-28T17:01:53;2.67;;;1.47;;
1004;SDS011;491;53.480;10.174;2023-02-28T17:04:19;6.70;;;1.30;;
1004;SDS011;491;53.480;10.174;2023-02-28T17:06:45;1.83;;;0.83;;
1004;SDS011;491;53.480;10.174;2023-02-28T17:09:14;3.00;;;1.83;;
1004;SDS011;491;53.480;10.174;2023-02-28T17:11:41;1.97;;;1.17;;
1004;SDS011;491;53.480;10.174;2023-02-28T17:14:07;1.40;;;1.13;;
1004;SDS011;491;53.480;10.174;2023-02-28T17:16:33;1.90;;;0.93;;
1004;SDS011;491;53.480;10.174;2023-02-28T17:19:01;1.90;;;0.90;;
1004;SDS011;491;53.480;10.174;2023-02-28T17:21:28;4.10;;;2.03;;
1004;SDS011;491;53.480;10.174;2023-02-28T17:23:54;2.80;;;1.20;;